Time;durP1;ratioP1;P1;durP2;ratioP2;P2;SDS_P1;SDS_P2;PMS_P1;PMS_P2;Temp;Humidity;BMP_temperature;BMP_pressure;BME280_temperature;BME280_humidity;BME280_pressure;Samples;Min_cycle;Max_cycle;Signal;HPM_P1;HPM_P2
2022/04/21 00:02:22;;;;;;;17.88;9.65;;;5.10;99.90;;;;;;5004106;28;20032;-64
2022/04/21 00:04:47;;;;;;;19.65;9.70;;;5.10;99.90;;;;;;5018794;28;20104;-64
2022/04/21 00:07:13;;;;;;;15.55;8.82;;;5.20;99.90;;;;;;5017219;28;20470;-64
2022/04/21 00:09:39;;;;;;;16.67;9.18;;;5.20;99.90;;;;;;5029745;28;20101;-64
2022/04/21 00:12:05;;;;;;;16.77;9.77;;;5.10;99.90;;;;;;5017324;28;20026;-65
2022/04/21 00:14:31;;;;;;;22.95;10.10;;;4.90;99.90;;;;;;5028141;28;20028;-64
2022/04/21 00:16:57;;;;;;;18.45;9.40;;;4.80;99.90;;;;;;5026086;28;20132;-65
2022/04/21 00:19:22;;;;;;;20.70;9.70;;;4.70;99.90;;;;;;5018776;28;20104;-64
2022/04/21 00:24:32;;;;;;;18.70;8.98;;;4.60;99.90;;;;;;5030333;28;20047;-64
2022/04/21 00:26:58;;;;;;;17.48;9.18;;;4.40;99.90;;;;;;5024143;28;20483;-64
2022/04/21 00:29:23;;;;;;;19.00;9.98;;;4.40;99.90;;;;;;5027563;28;20088;-64
2022/04/21 00:31:49;;;;;;;19.52;9.18;;;4.30;99.90;;;;;;5018807;28;20659;-64
2022/04/21 00:34:18;;;;;;;20.38;10.02;;;4.20;99.90;;;;;;5025540;28;20036;-64
2022/04/21 00:36:44;;;;;;;22.90;9.77;;;4.20;99.90;;;;;;5028125;28;20037;-65
2022/04/21 00:39:10;;;;;;;20.55;10.30;;;4.20;99.90;;;;;;4996375;28;20042;-64
2022/04/21 00:41:36;;;;;;;19.25;9.75;;;4.20;99.90;;;;;;5025452;28;20720;-64
2022/04/21 00:44:02;;;;;;;18.75;9.55;;;4.20;99.90;;;;;;5030700;28;20104;-64
2022/04/21 00:46:29;;;;;;;20.92;10.60;;;4.30;99.90;;;;;;5030585;28;20034;-64
2022/04/21 00:48:55;;;;;;;22.30;10.65;;;4.30;99.90;;;;;;5023471;28;20040;-64
2022/04/21 00:51:23;;;;;;;19.20;9.95;;;4.20;99.90;;;;;;5029918;28;20558;-64
2022/04/21 00:53:48;;;;;;;21.05;10.65;;;4.20;99.90;;;;;;5029779;28;20033;-64
2022/04/21 00:56:14;;;;;;;22.98;10.45;;;4.10;99.90;;;;;;5030276;28;20038;-64
2022/04/21 00:58:41;;;;;;;18.27;10.05;;;4.00;99.90;;;;;;5028947;28;20075;-64
2022/04/21 01:02:46;;;;;;;18.85;9.50;;;4.00;99.90;;;;;;5017324;28;20030;-64
2022/04/21 01:03:55;;;;;;;21.55;10.30;;;4.10;99.90;;;;;;5025873;28;20038;-64
2022/04/21 01:06:22;;;;;;;21.25;10.43;;;4.30;99.90;;;;;;5030310;28;20041;-64
2022/04/21 01:08:48;;;;;;;20.13;10.40;;;4.30;99.90;;;;;;5029866;28;20037;-65
2022/04/21 01:11:16;;;;;;;22.20;10.50;;;4.40;99.90;;;;;;5024122;28;20300;-64
2022/04/21 01:13:42;;;;;;;24.00;11.40;;;4.40;99.90;;;;;;5013125;28;20105;-64
2022/04/21 01:16:08;;;;;;;21.65;9.88;;;4.40;99.90;;;;;;5028533;28;20144;-64
2022/04/21 01:18:34;;;;;;;20.08;10.40;;;4.30;99.90;;;;;;5030164;28;20526;-64
2022/04/21 01:21:00;;;;;;;21.20;10.10;;;4.30;99.90;;;;;;5015763;28;20124;-64
2022/04/21 01:23:25;;;;;;;17.75;9.55;;;4.20;99.90;;;;;;4994166;28;20091;-64
2022/04/21 01:25:52;;;;;;;17.75;9.73;;;4.20;99.90;;;;;;5022161;28;20398;-64
2022/04/21 01:28:19;;;;;;;17.88;9.15;;;4.10;99.90;;;;;;5030357;28;20042;-64
2022/04/21 01:30:44;;;;;;;20.00;9.13;;;4.00;99.90;;;;;;5007841;28;20025;-65
2022/04/21 01:33:10;;;;;;;20.70;10.18;;;4.00;99.90;;;;;;5024447;28;20034;-64
2022/04/21 01:35:37;;;;;;;18.98;9.52;;;3.70;99.90;;;;;;5022652;28;20033;-65
2022/04/21 01:43:32;;;;;;;22.17;10.77;;;3.40;99.90;;;;;;5023866;28;20492;-64
2022/04/21 01:45:57;;;;;;;21.02;10.45;;;3.30;99.90;;;;;;5027089;28;20033;-64
2022/04/21 01:48:24;;;;;;;20.00;9.95;;;3.30;99.90;;;;;;5030156;28;20041;-63
2022/04/21 01:50:49;;;;;;;23.23;11.02;;;3.30;99.90;;;;;;5028843;28;20018;-64
2022/04/21 01:53:15;;;;;;;20.48;11.15;;;3.30;99.90;;;;;;5024415;28;20033;-64
2022/04/21 01:55:41;;;;;;;21.10;10.90;;;3.30;99.90;;;;;;5024423;28;20136;-64
2022/04/21 01:58:07;;;;;;;23.67;11.07;;;3.30;99.90;;;;;;5021811;28;20542;-64
2022/04/21 02:00:32;;;;;;;21.05;10.82;;;3.40;99.90;;;;;;5025998;28;21552;-64
2022/04/21 02:02:58;;;;;;;22.63;10.60;;;3.40;99.90;;;;;;5022262;28;20030;-64
2022/04/21 02:05:24;;;;;;;19.45;10.38;;;3.40;99.90;;;;;;5028435;28;20457;-64
2022/04/21 02:07:50;;;;;;;19.88;10.05;;;3.40;99.90;;;;;;5028682;28;20047;-65
2022/04/21 02:10:21;;;;;;;23.35;10.13;;;3.40;99.90;;;;;;5028639;28;20033;-64
2022/04/21 02:12:47;;;;;;;19.58;10.52;;;3.40;99.90;;;;;;5026283;28;20425;-64
2022/04/21 02:15:14;;;;;;;20.95;10.07;;;3.40;99.90;;;;;;5024180;28;20037;-64
2022/04/21 02:17:40;;;;;;;25.13;10.65;;;3.40;99.90;;;;;;5025728;28;20073;-64
2022/04/21 02:20:09;;;;;;;19.38;9.93;;;3.40;99.90;;;;;;5026919;28;20937;-64
2022/04/21 02:22:35;;;;;;;18.05;9.20;;;3.30;99.90;;;;;;5007570;28;20385;-64
2022/04/21 02:25:02;;;;;;;18.48;9.27;;;3.30;99.90;;;;;;5020309;28;20029;-64
2022/04/21 02:27:28;;;;;;;19.55;10.40;;;3.30;99.90;;;;;;5021768;28;20507;-64
2022/04/21 02:29:54;;;;;;;21.08;9.98;;;3.30;99.90;;;;;;5020895;28;20022;-64
2022/04/21 02:32:20;;;;;;;21.55;10.27;;;3.20;99.90;;;;;;5012315;28;20061;-64
2022/04/21 02:34:46;;;;;;;19.90;10.32;;;3.10;99.90;;;;;;5007355;28;20029;-64
2022/04/21 02:37:12;;;;;;;20.73;10.10;;;2.90;99.90;;;;;;5027478;28;20048;-64
2022/04/21 02:39:37;;;;;;;21.70;10.25;;;2.80;99.90;;;;;;5021731;28;20092;-64
2022/04/21 02:42:04;;;;;;;21.60;10.18;;;2.80;99.90;;;;;;4997220;28;20044;-64
2022/04/21 02:44:31;;;;;;;20.00;10.35;;;2.80;99.90;;;;;;5016858;28;20025;-64
2022/04/21 02:46:58;;;;;;;18.15;9.95;;;2.90;99.90;;;;;;5028692;28;20037;-64
2022/04/21 02:49:24;;;;;;;20.45;10.95;;;2.90;99.90;;;;;;5024971;28;20474;-64
2022/04/21 02:51:50;;;;;;;19.42;10.00;;;3.00;99.90;;;;;;5021647;28;20022;-65
2022/04/21 02:59:44;;;;;;;20.98;10.40;;;3.00;99.90;;;;;;5022963;28;20075;-64
2022/04/21 03:02:10;;;;;;;20.17;10.32;;;3.00;99.90;;;;;;4990904;28;20139;-64
2022/04/21 03:04:36;;;;;;;20.83;10.82;;;3.00;99.90;;;;;;5021856;28;20670;-63
2022/04/21 03:07:02;;;;;;;18.58;9.98;;;3.00;99.90;;;;;;4994616;28;20041;-63
2022/04/21 03:09:27;;;;;;;19.50;10.18;;;3.00;99.90;;;;;;5019594;28;20367;-63
2022/04/21 03:11:53;;;;;;;24.45;10.63;;;3.10;99.90;;;;;;5021963;28;20463;-64
2022/04/21 03:14:19;;;;;;;20.73;10.30;;;3.10;99.90;;;;;;5018586;28;20021;-64
2022/04/21 03:16:45;;;;;;;19.67;10.05;;;3.00;99.90;;;;;;5019129;28;20054;-63
2022/04/21 03:19:12;;;;;;;21.38;10.93;;;3.00;99.90;;;;;;5014363;28;20115;-63
2022/04/21 03:24:21;;;;;;;20.23;10.63;;;2.70;99.90;;;;;;5016132;28;20508;-63
2022/04/21 03:26:53;;;;;;;23.33;10.82;;;2.60;99.90;;;;;;5028346;28;20061;-64
2022/04/21 03:29:19;;;;;;;22.80;10.75;;;2.70;99.90;;;;;;5025931;28;20478;-63
2022/04/21 03:31:45;;;;;;;21.73;11.13;;;2.70;99.90;;;;;;5023344;28;20096;-64
2022/04/21 03:34:15;;;;;;;22.52;11.07;;;2.70;99.90;;;;;;5021660;28;20030;-63
2022/04/21 03:39:13;;;;;;;21.42;10.95;;;2.80;99.90;;;;;;5016709;28;20040;-64
2022/04/21 03:41:38;;;;;;;21.23;11.02;;;2.90;99.90;;;;;;5025733;28;20029;-64
2022/04/21 03:44:07;;;;;;;22.85;11.30;;;2.80;99.90;;;;;;5025670;28;20029;-63
2022/04/21 03:46:33;;;;;;;18.55;10.43;;;2.80;99.90;;;;;;5022648;28;20039;-64
2022/04/21 03:48:59;;;;;;;22.33;10.93;;;2.70;99.90;;;;;;5016450;28;20432;-64
2022/04/21 03:51:28;;;;;;;20.25;10.98;;;2.60;99.90;;;;;;5016147;28;20025;-63
2022/04/21 03:53:54;;;;;;;23.55;10.75;;;2.60;99.90;;;;;;5028230;28;20041;-64
2022/04/21 03:56:21;;;;;;;21.13;11.30;;;2.60;99.90;;;;;;5029137;28;20034;-63
2022/04/21 03:58:47;;;;;;;21.65;11.25;;;2.60;99.90;;;;;;5025987;28;20026;-63
2022/04/21 04:01:13;;;;;;;21.27;10.85;;;2.60;99.90;;;;;;5020245;28;20037;-63
2022/04/21 04:03:38;;;;;;;24.45;12.10;;;2.60;99.90;;;;;;5009848;28;20466;-63
2022/04/21 04:10:51;;;;;;;23.38;11.60;;;2.50;99.90;;;;;;5023643;28;20033;-64
2022/04/21 04:11:35;;;;;;;25.27;11.65;;;2.50;99.90;;;;;;5022340;28;20032;-63
2022/04/21 04:14:00;;;;;;;27.38;12.32;;;2.50;99.90;;;;;;5025782;28;20397;-63
2022/04/21 04:16:26;;;;;;;24.88;11.60;;;2.40;99.90;;;;;;5011465;28;20049;-64
2022/04/21 04:18:52;;;;;;;23.42;11.02;;;2.30;99.90;;;;;;5028646;28;20048;-64
2022/04/21 04:21:17;;;;;;;21.02;11.00;;;2.30;99.90;;;;;;5008185;28;20100;-64
2022/04/21 04:23:43;;;;;;;23.75;10.82;;;2.20;99.90;;;;;;4991333;28;20037;-64
2022/04/21 04:26:09;;;;;;;22.25;11.45;;;2.10;99.90;;;;;;4990865;28;20121;-64
2022/04/21 04:28:34;;;;;;;23.92;11.55;;;2.20;99.90;;;;;;5014060;28;20458;-64
2022/04/21 04:31:00;;;;;;;23.55;11.43;;;2.10;99.90;;;;;;5008368;28;20025;-63
2022/04/21 04:33:26;;;;;;;21.83;11.27;;;2.20;99.90;;;;;;5009313;28;20037;-63
2022/04/21 04:35:52;;;;;;;21.85;11.10;;;2.20;99.90;;;;;;4994455;28;20026;-63
2022/04/21 04:38:17;;;;;;;29.83;12.23;;;2.20;99.90;;;;;;5011619;28;20127;-63
2022/04/21 04:40:43;;;;;;;24.45;12.30;;;2.30;99.90;;;;;;5017247;28;20428;-63
2022/04/21 04:43:09;;;;;;;24.23;12.07;;;2.30;99.90;;;;;;5030103;28;20032;-64
2022/04/21 04:48:19;;;;;;;28.23;12.27;;;2.40;99.90;;;;;;5012958;28;20155;-62
2022/04/21 04:50:46;;;;;;;28.35;13.43;;;2.40;99.90;;;;;;5020075;28;20450;-62
2022/04/21 04:53:12;;;;;;;27.42;11.98;;;2.50;99.90;;;;;;5030100;28;20032;-63
2022/04/21 04:55:37;;;;;;;22.40;12.05;;;2.60;99.90;;;;;;5030526;28;20029;-63
2022/04/21 04:58:03;;;;;;;23.38;11.48;;;2.60;99.90;;;;;;5027107;28;20119;-63
2022/04/21 05:00:29;;;;;;;31.83;13.02;;;2.70;99.90;;;;;;5025537;28;20033;-63
2022/04/21 05:02:56;;;;;;;24.13;11.63;;;2.70;99.90;;;;;;5031519;28;20029;-63
2022/04/21 05:05:21;;;;;;;33.47;15.75;;;2.70;99.90;;;;;;5028449;28;20025;-63
2022/04/21 05:07:47;;;;;;;37.72;17.73;;;2.80;99.90;;;;;;5030602;28;20473;-63
2022/04/21 05:10:17;;;;;;;50.03;19.55;;;2.90;99.90;;;;;;5029348;28;20640;-63
2022/04/21 05:12:43;;;;;;;37.67;15.95;;;3.00;99.90;;;;;;5031045;28;20029;-63
2022/04/21 05:15:08;;;;;;;41.63;17.92;;;3.10;99.90;;;;;;5030903;28;20029;-63
2022/04/21 05:17:34;;;;;;;40.53;15.80;;;3.10;99.90;;;;;;5030732;28;20045;-63
2022/04/21 05:20:00;;;;;;;26.98;13.40;;;3.10;99.90;;;;;;5030145;28;20038;-65
2022/04/21 05:22:27;;;;;;;24.55;12.43;;;3.20;99.90;;;;;;5022057;28;20036;-64
2022/04/21 05:24:54;;;;;;;30.48;13.27;;;3.40;99.90;;;;;;5030465;28;20034;-63
2022/04/21 05:27:20;;;;;;;26.90;13.63;;;3.60;99.90;;;;;;5027360;28;20086;-63
2022/04/21 05:32:40;;;;;;;27.58;13.02;;;3.80;99.90;;;;;;5030355;28;20055;-62
2022/04/21 05:35:06;;;;;;;27.40;12.98;;;4.00;99.90;;;;;;5029626;28;20025;-62
2022/04/21 05:37:35;;;;;;;22.20;11.35;;;4.20;99.90;;;;;;5021528;28;20171;-62
2022/04/21 05:40:02;;;;;;;25.88;12.15;;;4.30;99.90;;;;;;5030428;28;20519;-64
2022/04/21 05:42:32;;;;;;;22.30;11.48;;;4.40;99.90;;;;;;5030336;28;20128;-62
2022/04/21 05:44:58;;;;;;;21.50;11.67;;;4.50;99.90;;;;;;5014122;28;20366;-64
2022/04/21 05:47:25;;;;;;;21.60;11.52;;;4.50;99.90;;;;;;5004225;28;20292;-62
2022/04/21 05:49:51;;;;;;;23.70;11.45;;;4.40;99.90;;;;;;5011204;28;20030;-62
2022/04/21 05:52:21;;;;;;;25.10;11.90;;;4.40;99.90;;;;;;5012870;28;20477;-62
2022/04/21 05:54:47;;;;;;;25.17;12.38;;;4.50;99.90;;;;;;5028938;28;20496;-62
2022/04/21 05:57:13;;;;;;;27.05;13.27;;;4.70;99.90;;;;;;5011175;28;20125;-63
2022/04/21 05:59:39;;;;;;;27.27;14.32;;;4.80;99.90;;;;;;5019373;28;20022;-63
2022/04/21 06:02:06;;;;;;;30.98;14.18;;;5.00;99.90;;;;;;5028709;28;20064;-62
2022/04/21 06:04:32;;;;;;;28.92;14.20;;;5.20;99.90;;;;;;5030672;28;20029;-62
2022/04/21 06:06:58;;;;;;;28.45;15.20;;;5.30;99.90;;;;;;5030074;28;20525;-63
2022/04/21 06:09:24;;;;;;;28.50;14.40;;;5.50;99.90;;;;;;5029933;28;20029;-62
2022/04/21 06:11:50;;;;;;;28.17;14.27;;;5.70;99.90;;;;;;5031212;28;20451;-63
2022/04/21 06:14:15;;;;;;;27.30;13.88;;;5.80;99.90;;;;;;5023773;28;20040;-62
2022/04/21 06:16:41;;;;;;;28.40;14.27;;;6.00;99.90;;;;;;5010521;28;20056;-63
2022/04/21 06:19:07;;;;;;;28.83;14.02;;;6.20;99.90;;;;;;5019350;28;20486;-63
2022/04/21 06:21:32;;;;;;;26.77;13.27;;;6.40;99.90;;;;;;5030819;28;20029;-62
2022/04/21 06:23:58;;;;;;;31.05;13.98;;;6.60;99.90;;;;;;5030267;28;20057;-63
2022/04/21 06:26:25;;;;;;;33.08;14.60;;;6.70;99.90;;;;;;5029671;28;20036;-62
2022/04/21 06:28:54;;;;;;;24.38;12.57;;;6.80;99.90;;;;;;5030527;28;20057;-62
2022/04/21 06:31:19;;;;;;;25.35;12.70;;;7.00;99.90;;;;;;5010893;28;20025;-63
2022/04/21 06:33:45;;;;;;;23.73;12.93;;;7.10;99.90;;;;;;5011473;28;20029;-63
2022/04/21 06:36:11;;;;;;;26.83;13.30;;;7.30;99.90;;;;;;5029383;28;20036;-62
2022/04/21 06:38:36;;;;;;;29.10;13.20;;;7.40;99.90;;;;;;5017643;28;20044;-63
2022/04/21 06:41:02;;;;;;;26.10;13.90;;;7.60;99.90;;;;;;5026689;28;20029;-63
2022/04/21 06:48:57;;;;;;;25.92;13.68;;;7.90;99.90;;;;;;5028365;28;20088;-63
2022/04/21 06:51:25;;;;;;;30.38;14.23;;;8.10;99.90;;;;;;5022357;28;20037;-62
2022/04/21 06:53:51;;;;;;;27.10;13.95;;;8.00;99.90;;;;;;5028663;28;20087;-63
2022/04/21 06:56:17;;;;;;;27.48;14.05;;;8.10;99.90;;;;;;5022044;28;20479;-63
2022/04/21 06:58:43;;;;;;;25.30;13.77;;;8.30;99.90;;;;;;5017992;28;20111;-62
2022/04/21 07:01:08;;;;;;;29.70;14.65;;;8.50;99.90;;;;;;5014029;28;20096;-62
2022/04/21 07:03:35;;;;;;;25.60;14.00;;;8.80;99.90;;;;;;5025148;28;20386;-62
2022/04/21 07:06:01;;;;;;;25.30;13.65;;;8.70;99.90;;;;;;5044020;28;20037;-63
2022/04/21 07:08:27;;;;;;;27.10;14.43;;;8.80;99.90;;;;;;5028567;28;20826;-63
2022/04/21 07:10:52;;;;;;;25.27;13.35;;;8.80;99.90;;;;;;5006032;28;20029;-63
2022/04/21 07:13:18;;;;;;;24.85;13.27;;;8.90;99.90;;;;;;5029037;28;20076;-63
2022/04/21 07:15:44;;;;;;;25.60;13.25;;;9.00;99.90;;;;;;5009748;28;20418;-64
2022/04/21 07:18:12;;;;;;;26.50;13.52;;;9.10;99.90;;;;;;5004886;28;20046;-64
2022/04/21 07:20:38;;;;;;;24.40;12.95;;;9.20;99.90;;;;;;5018170;28;20026;-64
2022/04/21 07:23:04;;;;;;;24.42;12.85;;;9.40;99.90;;;;;;5025277;28;20034;-66
2022/04/21 07:25:29;;;;;;;24.02;12.63;;;9.40;99.90;;;;;;5022863;28;20458;-63
2022/04/21 07:27:55;;;;;;;22.80;12.10;;;9.50;99.90;;;;;;5026732;28;20029;-64
2022/04/21 07:30:21;;;;;;;22.40;11.70;;;9.70;99.90;;;;;;5027477;28;20029;-63
2022/04/21 07:32:47;;;;;;;22.23;11.48;;;9.80;99.90;;;;;;5017689;28;20522;-64
2022/04/21 07:35:13;;;;;;;21.40;10.82;;;9.90;99.90;;;;;;5021512;28;20386;-64
2022/04/21 07:37:39;;;;;;;22.42;11.68;;;10.00;99.90;;;;;;4993439;28;20033;-64
2022/04/21 07:40:06;;;;;;;29.63;12.38;;;10.00;99.90;;;;;;5009204;28;20453;-65
2022/04/21 07:42:32;;;;;;;21.63;11.55;;;10.00;99.90;;;;;;5029120;28;20034;-64
2022/04/21 07:44:58;;;;;;;20.85;10.68;;;10.30;99.90;;;;;;5013142;28;20097;-64
2022/04/21 07:47:24;;;;;;;20.75;10.80;;;10.30;99.90;;;;;;4991429;28;20037;-64
2022/04/21 07:49:50;;;;;;;21.58;11.27;;;10.60;99.90;;;;;;5009489;28;20026;-64
2022/04/21 07:55:24;;;;;;;20.38;10.93;;;11.00;99.90;;;;;;5027875;28;20512;-64
2022/04/21 07:57:52;;;;;;;17.95;10.50;;;11.10;99.90;;;;;;5029272;28;20040;-65
2022/04/21 08:00:18;;;;;;;19.95;10.18;;;11.30;99.90;;;;;;5028349;28;20044;-65
2022/04/21 08:02:46;;;;;;;19.60;11.07;;;11.20;99.90;;;;;;5029341;28;20033;-65
2022/04/21 08:05:14;;;;;;;17.17;9.80;;;11.20;99.90;;;;;;5028510;28;20025;-65
2022/04/21 08:07:40;;;;;;;23.30;10.43;;;11.30;99.90;;;;;;5011456;28;20037;-64
2022/04/21 08:10:10;;;;;;;15.80;8.70;;;11.40;99.90;;;;;;5030514;28;20063;-65
2022/04/21 08:12:41;;;;;;;15.30;7.30;;;11.50;99.90;;;;;;5033239;28;20048;-65
2022/04/21 08:15:12;;;;;;;13.68;7.72;;;11.60;99.90;;;;;;5023461;28;20117;-65
2022/04/21 08:17:38;;;;;;;11.65;6.65;;;11.40;99.90;;;;;;5012778;28;20054;-64
2022/04/21 08:20:06;;;;;;;10.73;6.30;;;11.30;99.90;;;;;;5013154;28;20033;-65
2022/04/21 08:22:32;;;;;;;11.02;6.82;;;11.40;99.90;;;;;;5011971;28;20036;-64
2022/04/21 08:33:10;;;;;;;11.63;6.22;;;11.90;99.90;;;;;;5012356;28;20566;-66
2022/04/21 08:35:36;;;;;;;12.07;6.60;;;12.20;99.90;;;;;;5013027;28;20112;-66
2022/04/21 08:38:02;;;;;;;12.63;6.90;;;12.40;99.90;;;;;;5019223;28;20116;-65
2022/04/21 08:40:29;;;;;;;9.45;5.65;;;12.50;99.90;;;;;;5013339;28;20037;-64
2022/04/21 08:42:56;;;;;;;11.55;6.43;;;12.70;99.90;;;;;;4995150;28;20438;-65
2022/04/21 08:45:23;;;;;;;12.43;6.35;;;12.60;99.90;;;;;;5028870;28;20033;-65
2022/04/21 08:47:49;;;;;;;12.65;7.43;;;12.70;99.90;;;;;;5032196;28;20041;-64
2022/04/21 08:50:16;;;;;;;10.57;6.55;;;12.90;99.90;;;;;;5031719;28;20109;-64
2022/04/21 08:52:42;;;;;;;10.40;6.22;;;13.00;99.90;;;;;;5032723;28;20022;-64
2022/04/21 08:55:11;;;;;;;11.70;6.88;;;13.30;99.90;;;;;;5030805;28;20043;-64
2022/04/21 08:57:37;;;;;;;11.18;6.55;;;13.70;99.90;;;;;;5031563;28;20037;-65
2022/04/21 09:00:05;;;;;;;13.10;7.30;;;13.40;99.90;;;;;;5032171;28;20044;-64
2022/04/21 09:02:44;;;;;;;10.43;6.47;;;13.30;99.90;;;;;;5031395;28;20696;-64
2022/04/21 09:16:34;;;;;;;9.82;6.03;;;13.20;99.90;;;;;;5181167;22;20431;-64
2022/04/21 09:19:02;;;;;;;12.40;6.40;;;13.40;99.90;;;;;;4993113;28;20050;-65
2022/04/21 09:21:39;;;;;;;14.30;7.25;;;13.60;99.90;;;;;;4990780;28;20538;-63
2022/04/21 09:34:48;;;;;;;10.75;4.63;;;14.10;97.40;;;;;;5309125;23;20061;-66
2022/04/21 09:37:19;;;;;;;7.15;4.70;;;14.10;96.40;;;;;;5013821;28;20443;-67
2022/04/21 09:39:51;;;;;;;;;;;14.10;96.50;;;;;;5032148;28;20465;-66
2022/04/21 09:47:49;;;;;;;7.50;4.40;;;14.30;94.60;;;;;;5013684;28;20032;-67
2022/04/21 09:50:15;;;;;;;9.70;5.45;;;14.40;94.50;;;;;;5030440;28;20499;-66
2022/04/21 09:52:49;;;;;;;8.07;5.22;;;14.40;95.70;;;;;;5031350;28;20040;-67
2022/04/21 09:55:26;;;;;;;8.90;4.70;;;14.80;94.20;;;;;;5030482;28;20377;-67
2022/04/21 09:58:14;;;;;;;7.70;4.80;;;14.80;92.90;;;;;;5030211;28;20037;-67
2022/04/21 10:00:41;;;;;;;8.45;4.63;;;14.70;93.70;;;;;;5030962;28;20028;-67
2022/04/21 10:03:07;;;;;;;8.45;4.85;;;14.70;92.60;;;;;;5030085;28;20044;-67
2022/04/21 10:13:59;;;;;;;8.95;5.03;;;14.70;92.30;;;;;;5288074;22;20500;-65
2022/04/21 10:16:28;;;;;;;12.15;4.72;;;14.50;91.20;;;;;;4991802;28;20022;-64
2022/04/21 10:18:57;;;;;;;8.65;5.22;;;14.40;91.80;;;;;;4974769;28;20042;-64
2022/04/21 10:21:33;;;;;;;8.98;5.47;;;14.70;92.50;;;;;;4990611;28;20022;-64
2022/04/21 10:23:59;;;;;;;9.48;5.30;;;14.90;92.20;;;;;;4991436;28;20030;-64
2022/04/21 10:26:44;;;;;;;8.93;5.40;;;15.00;91.80;;;;;;4990547;28;20058;-64
2022/04/21 10:29:14;;;;;;;7.13;4.63;;;15.10;91.40;;;;;;5018213;28;20076;-66
2022/04/21 10:31:49;;;;;;;15.77;4.72;;;15.40;90.00;;;;;;5012236;28;20486;-65
2022/04/21 10:34:39;;;;;;;9.50;4.57;;;15.40;90.00;;;;;;5029694;28;20398;-65
2022/04/21 10:37:20;;;;;;;9.43;6.03;;;15.60;90.90;;;;;;5030765;28;20025;-65
2022/04/21 10:42:27;;;;;;;14.60;6.25;;;15.30;90.20;;;;;;5026656;28;20494;-65
2022/04/21 10:44:54;;;;;;;9.27;5.57;;;15.30;90.00;;;;;;5027677;28;20044;-65
2022/04/21 10:47:36;;;;;;;10.48;5.80;;;15.70;89.70;;;;;;5020997;28;20044;-64
2022/04/21 10:50:10;;;;;;;10.10;6.10;;;15.70;87.50;;;;;;4990515;28;20030;-64
2022/04/21 10:57:58;;;;;;;12.27;5.93;;;15.70;89.20;;;;;;5009816;28;20040;-65
2022/04/21 11:00:28;;;;;;;10.80;5.90;;;16.10;90.00;;;;;;5009142;28;20026;-64
2022/04/21 11:03:25;;;;;;;10.17;6.00;;;16.20;85.50;;;;;;5009648;28;20466;-64
2022/04/21 11:06:05;;;;;;;10.20;6.22;;;16.10;86.30;;;;;;4989013;28;20818;-65
2022/04/21 11:08:31;;;;;;;12.38;6.05;;;16.00;86.30;;;;;;4989824;28;20154;-64
2022/04/21 11:10:56;;;;;;;9.82;5.75;;;16.10;89.70;;;;;;4989991;28;20117;-64
2022/04/21 11:13:49;;;;;;;11.15;6.38;;;16.30;85.20;;;;;;4990462;28;20443;-64
2022/04/21 11:16:47;;;;;;;10.15;6.07;;;16.30;84.50;;;;;;5028677;28;20029;-65
2022/04/21 11:19:49;;;;;;;8.73;5.35;;;16.10;87.90;;;;;;5028728;28;20132;-66
2022/04/21 11:22:36;;;;;;;8.27;5.47;;;16.40;89.40;;;;;;5028966;28;20517;-64
2022/04/21 11:25:04;;;;;;;9.18;6.03;;;16.70;84.00;;;;;;5026853;28;20091;-65
2022/04/21 11:27:31;;;;;;;11.85;6.22;;;16.60;80.30;;;;;;5028454;28;20068;-64
2022/04/21 11:30:23;;;;;;;9.82;5.60;;;16.50;81.40;;;;;;5029336;28;20026;-64
2022/04/21 11:32:52;;;;;;;10.88;5.35;;;16.40;79.20;;;;;;5006234;28;20061;-64
2022/04/21 11:35:22;;;;;;;9.82;5.30;;;16.30;80.20;;;;;;5023353;28;20037;-64
2022/04/21 11:37:58;;;;;;;8.48;5.50;;;16.30;80.30;;;;;;5029041;28;20048;-64
2022/04/21 11:40:31;;;;;;;10.07;5.97;;;16.40;79.70;;;;;;4989031;28;20472;-64
2022/04/21 11:42:58;;;;;;;11.63;5.93;;;16.60;75.90;;;;;;4989796;28;20033;-64
2022/04/21 11:45:34;;;;;;;9.43;5.53;;;16.50;80.80;;;;;;5009429;28;20044;-64
2022/04/21 11:48:00;;;;;;;9.43;5.15;;;17.00;81.60;;;;;;5011407;28;20045;-65
2022/04/21 11:50:30;;;;;;;9.40;5.28;;;17.30;75.00;;;;;;5028197;28;20032;-64
2022/04/21 11:52:57;;;;;;;11.73;5.82;;;17.30;72.70;;;;;;5008998;28;20778;-64
2022/04/21 11:55:31;;;;;;;9.50;5.53;;;17.00;74.00;;;;;;5008371;28;20030;-64
2022/04/21 11:57:57;;;;;;;10.55;6.05;;;16.90;74.60;;;;;;5011098;28;20038;-64
2022/04/21 12:09:02;;;;;;;9.05;5.60;;;17.40;79.60;;;;;;4946895;29;20047;-64
2022/04/21 12:11:28;;;;;;;8.32;5.32;;;17.90;71.70;;;;;;4947260;29;20031;-64
2022/04/21 12:13:55;;;;;;;14.48;5.75;;;17.50;70.20;;;;;;4942550;29;20141;-64
2022/04/21 12:16:40;;;;;;;10.63;5.93;;;17.40;69.90;;;;;;4928157;29;20040;-64
2022/04/21 12:19:29;;;;;;;9.50;5.95;;;17.10;73.90;;;;;;4928434;29;20534;-64
2022/04/21 12:21:57;;;;;;;8.32;5.55;;;17.00;74.00;;;;;;4927717;29;20038;-64
2022/04/21 12:24:31;;;;;;;8.75;5.32;;;17.20;71.90;;;;;;4928150;29;20083;-64
2022/04/21 12:26:58;;;;;;;9.27;5.90;;;17.40;74.30;;;;;;4918953;29;20079;-65
2022/04/21 12:29:24;;;;;;;9.35;5.70;;;17.60;73.00;;;;;;4923233;29;20076;-64
2022/04/21 12:31:53;;;;;;;9.38;5.38;;;17.90;73.00;;;;;;4928805;29;20114;-64
2022/04/21 12:34:27;;;;;;;7.80;5.30;;;17.90;66.20;;;;;;4927325;29;20110;-64
2022/04/21 12:36:59;;;;;;;10.93;5.50;;;17.70;67.50;;;;;;4909570;29;20469;-64
2022/04/21 12:39:26;;;;;;;8.98;5.80;;;17.30;67.20;;;;;;4922446;29;20035;-63
2022/04/21 12:41:52;;;;;;;15.40;6.07;;;17.30;67.40;;;;;;4950501;28;20110;-64
2022/04/21 12:44:22;;;;;;;11.57;5.47;;;16.60;68.00;;;;;;4949719;28;20046;-64
2022/04/21 12:47:17;;;;;;;9.07;5.55;;;16.50;71.70;;;;;;4950573;28;20118;-63
2022/04/21 12:50:08;;;;;;;8.27;4.95;;;17.00;70.40;;;;;;4950611;28;20039;-63
2022/04/21 12:52:59;;;;;;;7.03;4.22;;;17.40;68.60;;;;;;4949752;28;20404;-63
2022/04/21 12:55:27;;;;;;;9.85;4.95;;;17.00;66.80;;;;;;4948465;28;20113;-63
2022/04/21 12:58:10;;;;;;;10.20;5.05;;;16.80;66.40;;;;;;4974992;28;20066;-63
2022/04/21 13:00:41;;;;;;;8.55;5.38;;;16.30;68.80;;;;;;4991853;28;20728;-63
2022/04/21 13:03:10;;;;;;;9.88;4.45;;;16.30;69.70;;;;;;4992701;28;20518;-64
2022/04/21 13:05:47;;;;;;;8.98;4.35;;;16.50;67.90;;;;;;4991718;28;20110;-63
2022/04/21 13:08:13;;;;;;;8.00;4.25;;;16.30;67.20;;;;;;4991074;28;20047;-63
2022/04/21 13:10:38;;;;;;;6.82;4.35;;;16.20;68.70;;;;;;4991684;28;20233;-63
2022/04/21 13:13:04;;;;;;;6.95;4.50;;;16.40;69.70;;;;;;4984519;28;20106;-63
2022/04/21 13:15:30;;;;;;;6.57;3.92;;;16.50;68.60;;;;;;5008658;28;20100;-63
2022/04/21 13:17:56;;;;;;;7.78;4.13;;;16.60;70.70;;;;;;5018001;28;20148;-63
2022/04/21 13:23:06;;;;;;;9.00;4.38;;;15.70;70.30;;;;;;5031689;28;20123;-64
2022/04/21 13:25:32;;;;;;;7.38;4.40;;;15.50;69.50;;;;;;5030473;28;20064;-63
2022/04/21 13:27:58;;;;;;;6.20;3.80;;;15.40;70.20;;;;;;5011939;28;20041;-63
2022/04/21 13:30:23;;;;;;;5.93;3.78;;;15.50;71.20;;;;;;5030671;28;20036;-63
2022/04/21 13:35:33;;;;;;;6.80;3.33;;;16.60;67.90;;;;;;5029826;28;20024;-64
2022/04/21 13:37:58;;;;;;;5.78;3.70;;;16.70;64.60;;;;;;5009761;28;20038;-64
2022/04/21 13:40:24;;;;;;;4.28;2.63;;;16.60;65.30;;;;;;5010924;28;20381;-64
2022/04/21 13:42:50;;;;;;;6.60;2.50;;;16.50;65.20;;;;;;5011459;28;20022;-63
2022/04/21 13:45:15;;;;;;;3.78;2.58;;;16.40;66.30;;;;;;5011396;28;20038;-63
2022/04/21 13:47:41;;;;;;;4.88;2.70;;;16.30;64.10;;;;;;5013326;28;20121;-63
2022/04/21 13:50:07;;;;;;;5.60;3.42;;;16.30;67.30;;;;;;5028049;28;20386;-64
2022/04/21 13:52:35;;;;;;;4.93;3.47;;;16.30;64.70;;;;;;5030278;28;20472;-63
2022/04/21 13:55:01;;;;;;;7.20;4.10;;;16.00;65.40;;;;;;5030905;28;20084;-64
2022/04/21 13:57:27;;;;;;;4.97;3.22;;;15.90;66.30;;;;;;5029740;28;20034;-63
2022/04/21 13:59:52;;;;;;;4.88;3.17;;;15.70;67.40;;;;;;5019038;28;20025;-63
2022/04/21 14:02:18;;;;;;;4.20;2.70;;;15.80;67.90;;;;;;5010613;28;20042;-64
2022/04/21 14:04:43;;;;;;;5.65;2.60;;;16.10;69.70;;;;;;5010434;28;20036;-63
2022/04/21 14:07:09;;;;;;;4.68;2.88;;;16.30;67.70;;;;;;5008757;28;20064;-64
2022/04/21 14:09:35;;;;;;;5.88;2.92;;;16.20;66.40;;;;;;5010480;28;20177;-63
2022/04/21 14:12:00;;;;;;;5.07;3.38;;;15.90;65.50;;;;;;5030640;28;20460;-63
2022/04/21 14:14:28;;;;;;;5.35;3.53;;;15.80;66.20;;;;;;5029532;28;20057;-63
2022/04/21 14:16:54;;;;;;;6.60;4.10;;;15.90;69.00;;;;;;5030434;28;20029;-63
2022/04/21 14:19:19;;;;;;;8.00;4.00;;;16.00;70.00;;;;;;5027754;28;20108;-64
2022/04/21 14:21:46;;;;;;;6.47;3.78;;;16.10;69.30;;;;;;5029998;28;20620;-63
2022/04/21 14:24:12;;;;;;;6.80;3.72;;;15.90;65.80;;;;;;5029194;28;20093;-64
2022/04/21 14:26:38;;;;;;;7.82;4.18;;;15.70;66.30;;;;;;5013352;28;20136;-63
2022/04/21 14:29:06;;;;;;;8.77;4.38;;;15.50;67.00;;;;;;5030340;28;20109;-64